sensor_id;sensor_type;location;lat;lon;timestamp;P1;durP1;ratioP1;P2;durP2;ratioP2
23360;SDS011;11852;50.082;18.554;2023-12-20T00:00:54;11.0;;;7.3;;
23360;SDS011;11852;50.082;18.554;2023-12-20T00:02:00;11.0;;;7.4;;
23360;SDS011;11852;50.082;18.554;2023-12-20T00:03:06;11.1;;;7.3;;
23360;SDS011;11852;50.082;18.554;2023-12-20T00:04:12;10.9;;;7.1;;
23360;SDS011;11852;50.082;18.554;2023-12-20T00:05:17;12.5;;;7.7;;
23360;SDS011;11852;50.082;18.554;2023-12-20T00:06:22;12.2;;;8.0;;
23360;SDS011;11852;50.082;18.554;2023-12-20T00:07:27;12.8;;;8.1;;
23360;SDS011;11852;50.082;18.554;2023-12-20T00:08:32;11.6;;;7.5;;
23360;SDS011;11852;50.082;18.554;2023-12-20T00:09:37;13.8;;;8.4;;
23360;SDS011;11852;50.082;18.554;2023-12-20T00:10:43;12.1;;;7.7;;
23360;SDS011;11852;50.082;18.554;2023-12-20T00:11:49;11.2;;;7.4;;
23360;SDS011;11852;50.082;18.554;2023-12-20T00:12:54;10.9;;;7.2;;
23360;SDS011;11852;50.082;18.554;2023-12-20T00:13:59;11.5;;;7.7;;
23360;SDS011;11852;50.082;18.554;2023-12-20T00:15:05;11.2;;;7.4;;
23360;SDS011;11852;50.082;18.554;2023-12-20T00:16:12;12.2;;;7.4;;
23360;SDS011;11852;50.082;18.554;2023-12-20T00:17:17;12.0;;;7.4;;
23360;SDS011;11852;50.082;18.554;2023-12-20T00:18:23;10.9;;;7.2;;
23360;SDS011;11852;50.082;18.554;2023-12-20T00:19:29;12.2;;;7.4;;
23360;SDS011;11852;50.082;18.554;2023-12-20T00:20:34;12.3;;;7.1;;
23360;SDS011;11852;50.082;18.554;2023-12-20T00:21:40;12.3;;;7.2;;
23360;SDS011;11852;50.082;18.554;2023-12-20T00:22:47;16.0;;;7.2;;
23360;SDS011;11852;50.082;18.554;2023-12-20T00:23:52;11.8;;;7.3;;
23360;SDS011;11852;50.082;18.554;2023-12-20T00:24:57;11.0;;;7.1;;
23360;SDS011;11852;50.082;18.554;2023-12-20T00:26:02;11.5;;;7.5;;
23360;SDS011;11852;50.082;18.554;2023-12-20T00:27:07;10.4;;;7.0;;
23360;SDS011;11852;50.082;18.554;2023-12-20T00:28:12;12.3;;;7.5;;
23360;SDS011;11852;50.082;18.554;2023-12-20T00:29:18;13.0;;;7.5;;
23360;SDS011;11852;50.082;18.554;2023-12-20T00:30:24;11.7;;;7.5;;
23360;SDS011;11852;50.082;18.554;2023-12-20T00:31:30;12.1;;;7.6;;
23360;SDS011;11852;50.082;18.554;2023-12-20T00:32:35;12.7;;;7.7;;
23360;SDS011;11852;50.082;18.554;2023-12-20T00:33:41;10.8;;;7.3;;
23360;SDS011;11852;50.082;18.554;2023-12-20T00:34:46;11.6;;;7.6;;
23360;SDS011;11852;50.082;18.554;2023-12-20T00:35:51;11.7;;;7.7;;
23360;SDS011;11852;50.082;18.554;2023-12-20T00:36:56;11.8;;;7.8;;
23360;SDS011;11852;50.082;18.554;2023-12-20T00:38:03;10.8;;;7.2;;
23360;SDS011;11852;50.082;18.554;2023-12-20T00:39:08;11.9;;;7.7;;
23360;SDS011;11852;50.082;18.554;2023-12-20T00:40:13;12.7;;;8.0;;
23360;SDS011;11852;50.082;18.554;2023-12-20T00:41:18;11.1;;;7.9;;
23360;SDS011;11852;50.082;18.554;2023-12-20T00:42:23;12.6;;;7.5;;
23360;SDS011;11852;50.082;18.554;2023-12-20T00:43:29;12.9;;;8.3;;
23360;SDS011;11852;50.082;18.554;2023-12-20T00:44:35;11.6;;;8.0;;
23360;SDS011;11852;50.082;18.554;2023-12-20T00:45:41;11.5;;;7.8;;
23360;SDS011;11852;50.082;18.554;2023-12-20T00:46:48;12.3;;;7.8;;
23360;SDS011;11852;50.082;18.554;2023-12-20T00:47:53;13.2;;;8.4;;
23360;SDS011;11852;50.082;18.554;2023-12-20T00:48:59;13.0;;;7.6;;
23360;SDS011;11852;50.082;18.554;2023-12-20T00:50:06;11.1;;;7.7;;
23360;SDS011;11852;50.082;18.554;2023-12-20T00:52:20;12.8;;;7.2;;
23360;SDS011;11852;50.082;18.554;2023-12-20T00:53:26;11.3;;;7.9;;
23360;SDS011;11852;50.082;18.554;2023-12-20T00:54:32;12.1;;;7.9;;
23360;SDS011;11852;50.082;18.554;2023-12-20T00:55:37;11.5;;;7.8;;
23360;SDS011;11852;50.082;18.554;2023-12-20T00:56:43;13.2;;;7.7;;
23360;SDS011;11852;50.082;18.554;2023-12-20T00:59:48;11.0;;;7.9;;
23360;SDS011;11852;50.082;18.554;2023-12-20T01:00:54;11.3;;;7.7;;
23360;SDS011;11852;50.082;18.554;2023-12-20T01:01:58;11.8;;;8.1;;
23360;SDS011;11852;50.082;18.554;2023-12-20T01:03:04;12.8;;;8.2;;
23360;SDS011;11852;50.082;18.554;2023-12-20T01:04:09;12.1;;;8.1;;
23360;SDS011;11852;50.082;18.554;2023-12-20T01:05:15;12.1;;;8.2;;
23360;SDS011;11852;50.082;18.554;2023-12-20T01:06:39;13.0;;;8.8;;
23360;SDS011;11852;50.082;18.554;2023-12-20T01:07:44;12.3;;;8.4;;
23360;SDS011;11852;50.082;18.554;2023-12-20T01:08:50;12.2;;;8.7;;
23360;SDS011;11852;50.082;18.554;2023-12-20T01:09:55;14.0;;;8.6;;
23360;SDS011;11852;50.082;18.554;2023-12-20T01:11:00;11.9;;;8.2;;
23360;SDS011;11852;50.082;18.554;2023-12-20T01:12:06;13.0;;;7.8;;
23360;SDS011;11852;50.082;18.554;2023-12-20T01:13:13;11.9;;;8.1;;
23360;SDS011;11852;50.082;18.554;2023-12-20T01:14:18;11.9;;;8.2;;
23360;SDS011;11852;50.082;18.554;2023-12-20T01:15:23;12.7;;;8.5;;
23360;SDS011;11852;50.082;18.554;2023-12-20T01:16:28;12.4;;;8.6;;
23360;SDS011;11852;50.082;18.554;2023-12-20T01:17:33;13.3;;;8.3;;
23360;SDS011;11852;50.082;18.554;2023-12-20T01:18:40;12.5;;;8.5;;
23360;SDS011;11852;50.082;18.554;2023-12-20T01:19:45;13.0;;;8.3;;
23360;SDS011;11852;50.082;18.554;2023-12-20T01:20:49;13.4;;;8.6;;
23360;SDS011;11852;50.082;18.554;2023-12-20T01:21:54;12.9;;;8.7;;
23360;SDS011;11852;50.082;18.554;2023-12-20T01:22:59;13.4;;;9.0;;
23360;SDS011;11852;50.082;18.554;2023-12-20T01:24:04;12.2;;;8.4;;
23360;SDS011;11852;50.082;18.554;2023-12-20T01:25:09;14.5;;;8.9;;
23360;SDS011;11852;50.082;18.554;2023-12-20T01:26:14;13.0;;;8.6;;
23360;SDS011;11852;50.082;18.554;2023-12-20T01:27:19;13.2;;;9.2;;
23360;SDS011;11852;50.082;18.554;2023-12-20T01:28:24;13.2;;;9.3;;
23360;SDS011;11852;50.082;18.554;2023-12-20T01:29:30;13.2;;;9.4;;
23360;SDS011;11852;50.082;18.554;2023-12-20T01:30:35;14.2;;;9.6;;
23360;SDS011;11852;50.082;18.554;2023-12-20T01:31:40;13.7;;;9.5;;
23360;SDS011;11852;50.082;18.554;2023-12-20T01:32:44;13.0;;;9.0;;
23360;SDS011;11852;50.082;18.554;2023-12-20T01:33:50;13.4;;;9.6;;
23360;SDS011;11852;50.082;18.554;2023-12-20T01:34:55;14.9;;;8.9;;
23360;SDS011;11852;50.082;18.554;2023-12-20T01:36:00;13.9;;;9.3;;
23360;SDS011;11852;50.082;18.554;2023-12-20T01:37:06;14.6;;;8.9;;
23360;SDS011;11852;50.082;18.554;2023-12-20T01:38:11;13.0;;;9.1;;
23360;SDS011;11852;50.082;18.554;2023-12-20T01:39:17;13.6;;;9.1;;
23360;SDS011;11852;50.082;18.554;2023-12-20T01:40:24;13.1;;;8.8;;
23360;SDS011;11852;50.082;18.554;2023-12-20T01:41:31;12.5;;;9.0;;
23360;SDS011;11852;50.082;18.554;2023-12-20T01:42:36;13.7;;;8.7;;
23360;SDS011;11852;50.082;18.554;2023-12-20T01:43:41;13.2;;;8.9;;
23360;SDS011;11852;50.082;18.554;2023-12-20T01:44:47;13.7;;;9.7;;
23360;SDS011;11852;50.082;18.554;2023-12-20T01:45:51;14.4;;;8.9;;
23360;SDS011;11852;50.082;18.554;2023-12-20T01:46:57;13.6;;;9.2;;
23360;SDS011;11852;50.082;18.554;2023-12-20T01:48:13;13.8;;;9.2;;
23360;SDS011;11852;50.082;18.554;2023-12-20T01:49:18;13.5;;;8.5;;
23360;SDS011;11852;50.082;18.554;2023-12-20T01:50:24;14.8;;;9.1;;
23360;SDS011;11852;50.082;18.554;2023-12-20T01:51:29;12.9;;;9.3;;
23360;SDS011;11852;50.082;18.554;2023-12-20T01:52:34;13.1;;;9.0;;
23360;SDS011;11852;50.082;18.554;2023-12-20T01:53:39;12.5;;;8.4;;
23360;SDS011;11852;50.082;18.554;2023-12-20T01:54:44;13.8;;;9.3;;
23360;SDS011;11852;50.082;18.554;2023-12-20T01:55:50;13.1;;;9.0;;
23360;SDS011;11852;50.082;18.554;2023-12-20T01:56:55;13.8;;;9.1;;
23360;SDS011;11852;50.082;18.554;2023-12-20T01:58:01;13.2;;;8.9;;
23360;SDS011;11852;50.082;18.554;2023-12-20T01:59:08;12.4;;;8.9;;
23360;SDS011;11852;50.082;18.554;2023-12-20T02:00:16;12.7;;;9.1;;
23360;SDS011;11852;50.082;18.554;2023-12-20T02:01:21;13.1;;;8.7;;
23360;SDS011;11852;50.082;18.554;2023-12-20T02:02:26;12.4;;;8.5;;
23360;SDS011;11852;50.082;18.554;2023-12-20T02:03:31;13.1;;;8.7;;
23360;SDS011;11852;50.082;18.554;2023-12-20T02:04:37;13.9;;;9.2;;
23360;SDS011;11852;50.082;18.554;2023-12-20T02:05:42;14.5;;;8.7;;
23360;SDS011;11852;50.082;18.554;2023-12-20T02:06:53;16.0;;;10.0;;
23360;SDS011;11852;50.082;18.554;2023-12-20T02:08:00;15.2;;;9.5;;
23360;SDS011;11852;50.082;18.554;2023-12-20T02:09:05;13.3;;;8.9;;
23360;SDS011;11852;50.082;18.554;2023-12-20T02:10:10;13.7;;;9.0;;
23360;SDS011;11852;50.082;18.554;2023-12-20T02:11:17;13.8;;;9.0;;
23360;SDS011;11852;50.082;18.554;2023-12-20T02:12:23;13.2;;;9.7;;
23360;SDS011;11852;50.082;18.554;2023-12-20T02:13:28;15.3;;;9.5;;
23360;SDS011;11852;50.082;18.554;2023-12-20T02:14:33;13.3;;;8.9;;
23360;SDS011;11852;50.082;18.554;2023-12-20T02:15:38;14.5;;;9.6;;
23360;SDS011;11852;50.082;18.554;2023-12-20T02:16:43;13.2;;;9.3;;
23360;SDS011;11852;50.082;18.554;2023-12-20T02:17:48;13.8;;;9.1;;
23360;SDS011;11852;50.082;18.554;2023-12-20T02:18:53;13.6;;;8.6;;
23360;SDS011;11852;50.082;18.554;2023-12-20T02:19:58;15.7;;;9.2;;
23360;SDS011;11852;50.082;18.554;2023-12-20T02:21:04;12.8;;;8.7;;
23360;SDS011;11852;50.082;18.554;2023-12-20T02:22:09;13.9;;;9.4;;
23360;SDS011;11852;50.082;18.554;2023-12-20T02:23:13;12.5;;;8.9;;
23360;SDS011;11852;50.082;18.554;2023-12-20T02:24:18;12.1;;;8.6;;
23360;SDS011;11852;50.082;18.554;2023-12-20T02:25:24;13.2;;;9.5;;
23360;SDS011;11852;50.082;18.554;2023-12-20T02:26:29;12.8;;;9.0;;
23360;SDS011;11852;50.082;18.554;2023-12-20T02:27:34;12.4;;;8.6;;
23360;SDS011;11852;50.082;18.554;2023-12-20T02:28:39;13.9;;;9.2;;
23360;SDS011;11852;50.082;18.554;2023-12-20T02:29:44;13.4;;;9.1;;
23360;SDS011;11852;50.082;18.554;2023-12-20T02:30:49;13.4;;;8.8;;
23360;SDS011;11852;50.082;18.554;2023-12-20T02:31:54;12.8;;;8.9;;
23360;SDS011;11852;50.082;18.554;2023-12-20T02:32:59;12.3;;;8.8;;
23360;SDS011;11852;50.082;18.554;2023-12-20T02:34:05;12.8;;;8.8;;
23360;SDS011;11852;50.082;18.554;2023-12-20T02:35:10;13.4;;;8.9;;
23360;SDS011;11852;50.082;18.554;2023-12-20T02:36:15;12.8;;;9.0;;
23360;SDS011;11852;50.082;18.554;2023-12-20T02:37:20;12.4;;;8.9;;
23360;SDS011;11852;50.082;18.554;2023-12-20T02:38:25;13.3;;;9.0;;
23360;SDS011;11852;50.082;18.554;2023-12-20T02:39:30;12.5;;;8.5;;
23360;SDS011;11852;50.082;18.554;2023-12-20T02:40:36;13.4;;;9.1;;
23360;SDS011;11852;50.082;18.554;2023-12-20T02:41:41;12.9;;;9.0;;
23360;SDS011;11852;50.082;18.554;2023-12-20T02:42:46;12.8;;;8.6;;
23360;SDS011;11852;50.082;18.554;2023-12-20T02:43:52;13.2;;;9.1;;
23360;SDS011;11852;50.082;18.554;2023-12-20T02:44:58;13.5;;;8.8;;
23360;SDS011;11852;50.082;18.554;2023-12-20T02:46:04;13.2;;;9.3;;
23360;SDS011;11852;50.082;18.554;2023-12-20T02:47:09;13.7;;;9.4;;
23360;SDS011;11852;50.082;18.554;2023-12-20T02:48:28;13.6;;;9.8;;
23360;SDS011;11852;50.082;18.554;2023-12-20T02:49:35;14.3;;;8.9;;
23360;SDS011;11852;50.082;18.554;2023-12-20T02:50:49;12.4;;;9.2;;
23360;SDS011;11852;50.082;18.554;2023-12-20T02:51:55;12.5;;;8.8;;
23360;SDS011;11852;50.082;18.554;2023-12-20T02:53:01;14.4;;;9.7;;
23360;SDS011;11852;50.082;18.554;2023-12-20T02:54:07;13.3;;;9.8;;
23360;SDS011;11852;50.082;18.554;2023-12-20T02:55:13;13.1;;;8.9;;
23360;SDS011;11852;50.082;18.554;2023-12-20T02:56:23;12.8;;;9.2;;
23360;SDS011;11852;50.082;18.554;2023-12-20T02:57:32;15.3;;;9.4;;
23360;SDS011;11852;50.082;18.554;2023-12-20T02:58:43;14.4;;;9.7;;
23360;SDS011;11852;50.082;18.554;2023-12-20T02:59:54;14.0;;;9.9;;
23360;SDS011;11852;50.082;18.554;2023-12-20T03:00:59;12.5;;;8.6;;
23360;SDS011;11852;50.082;18.554;2023-12-20T03:02:06;12.6;;;8.7;;
23360;SDS011;11852;50.082;18.554;2023-12-20T03:03:11;12.3;;;8.9;;
23360;SDS011;11852;50.082;18.554;2023-12-20T03:04:16;11.6;;;7.8;;
23360;SDS011;11852;50.082;18.554;2023-12-20T03:05:22;14.0;;;9.1;;
23360;SDS011;11852;50.082;18.554;2023-12-20T03:06:27;11.8;;;8.3;;
23360;SDS011;11852;50.082;18.554;2023-12-20T03:07:33;11.8;;;8.3;;
23360;SDS011;11852;50.082;18.554;2023-12-20T03:08:38;14.8;;;8.6;;
23360;SDS011;11852;50.082;18.554;2023-12-20T03:09:43;14.7;;;10.5;;
23360;SDS011;11852;50.082;18.554;2023-12-20T03:10:49;13.9;;;9.7;;
23360;SDS011;11852;50.082;18.554;2023-12-20T03:11:53;15.0;;;10.1;;
23360;SDS011;11852;50.082;18.554;2023-12-20T03:12:59;13.6;;;9.1;;
23360;SDS011;11852;50.082;18.554;2023-12-20T03:14:05;14.1;;;9.8;;
23360;SDS011;11852;50.082;18.554;2023-12-20T03:15:10;13.2;;;9.7;;
23360;SDS011;11852;50.082;18.554;2023-12-20T03:16:15;13.1;;;8.5;;
23360;SDS011;11852;50.082;18.554;2023-12-20T03:17:20;13.2;;;9.6;;
23360;SDS011;11852;50.082;18.554;2023-12-20T03:18:25;13.2;;;9.2;;
23360;SDS011;11852;50.082;18.554;2023-12-20T03:19:30;13.1;;;8.9;;
23360;SDS011;11852;50.082;18.554;2023-12-20T03:20:35;12.9;;;8.1;;
23360;SDS011;11852;50.082;18.554;2023-12-20T03:21:42;14.3;;;9.5;;
23360;SDS011;11852;50.082;18.554;2023-12-20T03:22:47;13.1;;;9.5;;
23360;SDS011;11852;50.082;18.554;2023-12-20T03:23:53;13.3;;;9.7;;
23360;SDS011;11852;50.082;18.554;2023-12-20T03:24:58;13.0;;;9.5;;
23360;SDS011;11852;50.082;18.554;2023-12-20T03:26:05;13.3;;;9.3;;
23360;SDS011;11852;50.082;18.554;2023-12-20T03:27:09;14.0;;;10.0;;
23360;SDS011;11852;50.082;18.554;2023-12-20T03:28:14;12.9;;;9.1;;
23360;SDS011;11852;50.082;18.554;2023-12-20T03:29:18;14.2;;;9.6;;
23360;SDS011;11852;50.082;18.554;2023-12-20T03:30:26;13.0;;;9.0;;
23360;SDS011;11852;50.082;18.554;2023-12-20T03:31:31;12.6;;;8.9;;
23360;SDS011;11852;50.082;18.554;2023-12-20T03:32:36;13.7;;;10.1;;
23360;SDS011;11852;50.082;18.554;2023-12-20T03:33:41;15.5;;;9.3;;
23360;SDS011;11852;50.082;18.554;2023-12-20T03:34:46;14.4;;;9.6;;
23360;SDS011;11852;50.082;18.554;2023-12-20T03:35:51;14.7;;;9.6;;
23360;SDS011;11852;50.082;18.554;2023-12-20T03:36:56;14.4;;;10.1;;
23360;SDS011;11852;50.082;18.554;2023-12-20T03:38:01;14.1;;;10.0;;
23360;SDS011;11852;50.082;18.554;2023-12-20T03:39:06;14.4;;;10.8;;
23360;SDS011;11852;50.082;18.554;2023-12-20T03:40:11;13.1;;;9.6;;
23360;SDS011;11852;50.082;18.554;2023-12-20T03:41:16;13.4;;;9.3;;
23360;SDS011;11852;50.082;18.554;2023-12-20T03:42:21;13.6;;;9.2;;
23360;SDS011;11852;50.082;18.554;2023-12-20T03:43:25;13.8;;;9.5;;
23360;SDS011;11852;50.082;18.554;2023-12-20T03:44:30;14.1;;;10.0;;
23360;SDS011;11852;50.082;18.554;2023-12-20T03:45:35;14.4;;;9.6;;
23360;SDS011;11852;50.082;18.554;2023-12-20T03:46:40;14.1;;;9.8;;
23360;SDS011;11852;50.082;18.554;2023-12-20T03:47:45;13.5;;;9.1;;
23360;SDS011;11852;50.082;18.554;2023-12-20T03:48:50;14.6;;;10.4;;
23360;SDS011;11852;50.082;18.554;2023-12-20T03:49:55;13.0;;;9.0;;
23360;SDS011;11852;50.082;18.554;2023-12-20T03:51:00;14.1;;;9.6;;
23360;SDS011;11852;50.082;18.554;2023-12-20T03:52:05;13.0;;;9.0;;
23360;SDS011;11852;50.082;18.554;2023-12-20T03:53:09;13.6;;;8.9;;
23360;SDS011;11852;50.082;18.554;2023-12-20T03:54:14;14.5;;;9.1;;
23360;SDS011;11852;50.082;18.554;2023-12-20T03:55:19;16.1;;;9.9;;
23360;SDS011;11852;50.082;18.554;2023-12-20T03:56:24;14.0;;;9.5;;
23360;SDS011;11852;50.082;18.554;2023-12-20T03:57:29;15.3;;;10.5;;
23360;SDS011;11852;50.082;18.554;2023-12-20T03:58:33;13.9;;;8.9;;
23360;SDS011;11852;50.082;18.554;2023-12-20T03:59:38;15.3;;;9.6;;
23360;SDS011;11852;50.082;18.554;2023-12-20T04:00:43;16.9;;;10.6;;
23360;SDS011;11852;50.082;18.554;2023-12-20T04:01:48;14.4;;;9.8;;
23360;SDS011;11852;50.082;18.554;2023-12-20T04:02:53;16.6;;;10.3;;
23360;SDS011;11852;50.082;18.554;2023-12-20T04:03:58;16.4;;;10.6;;
23360;SDS011;11852;50.082;18.554;2023-12-20T04:05:03;16.8;;;10.3;;
23360;SDS011;11852;50.082;18.554;2023-12-20T04:06:08;18.7;;;11.2;;
23360;SDS011;11852;50.082;18.554;2023-12-20T04:07:13;15.0;;;10.1;;
23360;SDS011;11852;50.082;18.554;2023-12-20T04:08:18;16.0;;;10.0;;
23360;SDS011;11852;50.082;18.554;2023-12-20T04:09:23;16.9;;;10.5;;
23360;SDS011;11852;50.082;18.554;2023-12-20T04:10:28;15.2;;;9.3;;
23360;SDS011;11852;50.082;18.554;2023-12-20T04:11:33;15.1;;;9.6;;
23360;SDS011;11852;50.082;18.554;2023-12-20T04:12:38;15.1;;;10.3;;
23360;SDS011;11852;50.082;18.554;2023-12-20T04:13:43;14.4;;;9.8;;
23360;SDS011;11852;50.082;18.554;2023-12-20T04:14:48;15.0;;;9.6;;
23360;SDS011;11852;50.082;18.554;2023-12-20T04:15:52;16.7;;;10.7;;
23360;SDS011;11852;50.082;18.554;2023-12-20T04:16:57;17.0;;;10.7;;
23360;SDS011;11852;50.082;18.554;2023-12-20T04:18:02;15.2;;;10.0;;
23360;SDS011;11852;50.082;18.554;2023-12-20T04:19:11;17.2;;;10.3;;
23360;SDS011;11852;50.082;18.554;2023-12-20T04:20:16;16.0;;;9.8;;
23360;SDS011;11852;50.082;18.554;2023-12-20T04:21:20;13.7;;;9.7;;
23360;SDS011;11852;50.082;18.554;2023-12-20T04:22:25;16.2;;;10.2;;
23360;SDS011;11852;50.082;18.554;2023-12-20T04:23:30;13.8;;;9.5;;
23360;SDS011;11852;50.082;18.554;2023-12-20T04:24:35;13.2;;;9.1;;
23360;SDS011;11852;50.082;18.554;2023-12-20T04:25:40;14.2;;;9.6;;
23360;SDS011;11852;50.082;18.554;2023-12-20T04:26:45;14.2;;;9.7;;
23360;SDS011;11852;50.082;18.554;2023-12-20T04:27:50;15.4;;;9.0;;
23360;SDS011;11852;50.082;18.554;2023-12-20T04:28:54;13.0;;;8.8;;
23360;SDS011;11852;50.082;18.554;2023-12-20T04:29:59;13.3;;;9.3;;
23360;SDS011;11852;50.082;18.554;2023-12-20T04:31:04;14.5;;;9.5;;
23360;SDS011;11852;50.082;18.554;2023-12-20T04:32:09;13.4;;;9.1;;
23360;SDS011;11852;50.082;18.554;2023-12-20T04:33:14;14.5;;;9.3;;
23360;SDS011;11852;50.082;18.554;2023-12-20T04:34:20;14.3;;;9.5;;
23360;SDS011;11852;50.082;18.554;2023-12-20T04:35:24;14.0;;;9.4;;
23360;SDS011;11852;50.082;18.554;2023-12-20T04:36:29;13.5;;;9.0;;
23360;SDS011;11852;50.082;18.554;2023-12-20T04:37:35;14.1;;;9.5;;
23360;SDS011;11852;50.082;18.554;2023-12-20T04:38:40;15.8;;;9.2;;
23360;SDS011;11852;50.082;18.554;2023-12-20T04:39:45;13.8;;;9.5;;
23360;SDS011;11852;50.082;18.554;2023-12-20T04:40:50;14.2;;;9.8;;
23360;SDS011;11852;50.082;18.554;2023-12-20T04:41:55;15.3;;;9.5;;
23360;SDS011;11852;50.082;18.554;2023-12-20T04:43:00;15.3;;;10.0;;
23360;SDS011;11852;50.082;18.554;2023-12-20T04:44:06;13.5;;;9.3;;
23360;SDS011;11852;50.082;18.554;2023-12-20T04:45:11;15.4;;;10.3;;
23360;SDS011;11852;50.082;18.554;2023-12-20T04:46:16;14.5;;;9.0;;
23360;SDS011;11852;50.082;18.554;2023-12-20T04:47:21;14.2;;;9.8;;
23360;SDS011;11852;50.082;18.554;2023-12-20T04:48:26;16.1;;;10.4;;
23360;SDS011;11852;50.082;18.554;2023-12-20T04:49:31;15.8;;;10.4;;
23360;SDS011;11852;50.082;18.554;2023-12-20T04:50:35;16.6;;;11.4;;
23360;SDS011;11852;50.082;18.554;2023-12-20T04:51:40;15.6;;;10.4;;
23360;SDS011;11852;50.082;18.554;2023-12-20T04:52:45;17.4;;;11.5;;
23360;SDS011;11852;50.082;18.554;2023-12-20T04:53:50;17.5;;;11.5;;
23360;SDS011;11852;50.082;18.554;2023-12-20T04:54:55;16.0;;;11.2;;
23360;SDS011;11852;50.082;18.554;2023-12-20T04:56:00;16.4;;;11.7;;
23360;SDS011;11852;50.082;18.554;2023-12-20T04:57:04;15.5;;;10.3;;
23360;SDS011;11852;50.082;18.554;2023-12-20T04:58:09;18.8;;;10.8;;
23360;SDS011;11852;50.082;18.554;2023-12-20T04:59:14;13.8;;;10.1;;
23360;SDS011;11852;50.082;18.554;2023-12-20T05:00:19;15.7;;;11.1;;
23360;SDS011;11852;50.082;18.554;2023-12-20T05:01:23;15.2;;;10.7;;
23360;SDS011;11852;50.082;18.554;2023-12-20T05:02:28;17.4;;;10.7;;
23360;SDS011;11852;50.082;18.554;2023-12-20T05:03:33;15.1;;;10.3;;
23360;SDS011;11852;50.082;18.554;2023-12-20T05:04:38;15.1;;;10.3;;
23360;SDS011;11852;50.082;18.554;2023-12-20T05:05:43;15.2;;;10.4;;
23360;SDS011;11852;50.082;18.554;2023-12-20T05:06:48;17.0;;;11.0;;
23360;SDS011;11852;50.082;18.554;2023-12-20T05:07:53;17.4;;;11.6;;
23360;SDS011;11852;50.082;18.554;2023-12-20T05:08:57;16.7;;;11.3;;
23360;SDS011;11852;50.082;18.554;2023-12-20T05:10:03;14.9;;;10.3;;
23360;SDS011;11852;50.082;18.554;2023-12-20T05:11:07;17.2;;;10.8;;
23360;SDS011;11852;50.082;18.554;2023-12-20T05:12:12;18.2;;;11.7;;
23360;SDS011;11852;50.082;18.554;2023-12-20T05:13:17;17.7;;;11.3;;
23360;SDS011;11852;50.082;18.554;2023-12-20T05:14:21;17.8;;;11.0;;
23360;SDS011;11852;50.082;18.554;2023-12-20T05:15:26;18.0;;;11.6;;
23360;SDS011;11852;50.082;18.554;2023-12-20T05:16:31;17.6;;;11.4;;
23360;SDS011;11852;50.082;18.554;2023-12-20T05:17:36;17.6;;;11.5;;
23360;SDS011;11852;50.082;18.554;2023-12-20T05:18:41;17.4;;;11.3;;
23360;SDS011;11852;50.082;18.554;2023-12-20T05:19:45;16.7;;;11.4;;
23360;SDS011;11852;50.082;18.554;2023-12-20T05:20:50;15.6;;;10.9;;
23360;SDS011;11852;50.082;18.554;2023-12-20T05:21:55;16.7;;;11.6;;
23360;SDS011;11852;50.082;18.554;2023-12-20T05:23:00;18.5;;;11.9;;
23360;SDS011;11852;50.082;18.554;2023-12-20T05:24:05;17.0;;;11.4;;
23360;SDS011;11852;50.082;18.554;2023-12-20T05:25:10;17.0;;;11.5;;
23360;SDS011;11852;50.082;18.554;2023-12-20T05:26:15;17.4;;;11.4;;
23360;SDS011;11852;50.082;18.554;2023-12-20T05:27:20;19.7;;;11.8;;
23360;SDS011;11852;50.082;18.554;2023-12-20T05:28:25;17.7;;;11.6;;
23360;SDS011;11852;50.082;18.554;2023-12-20T05:29:30;19.3;;;12.8;;
23360;SDS011;11852;50.082;18.554;2023-12-20T05:30:35;17.9;;;11.9;;
23360;SDS011;11852;50.082;18.554;2023-12-20T05:31:39;20.2;;;12.6;;
23360;SDS011;11852;50.082;18.554;2023-12-20T05:32:44;20.5;;;13.2;;
23360;SDS011;11852;50.082;18.554;2023-12-20T05:33:49;19.3;;;12.9;;
23360;SDS011;11852;50.082;18.554;2023-12-20T05:34:54;18.0;;;12.0;;
23360;SDS011;11852;50.082;18.554;2023-12-20T05:35:58;21.0;;;13.8;;
23360;SDS011;11852;50.082;18.554;2023-12-20T05:37:03;20.2;;;13.3;;
23360;SDS011;11852;50.082;18.554;2023-12-20T05:38:08;20.6;;;13.3;;
23360;SDS011;11852;50.082;18.554;2023-12-20T05:39:13;20.9;;;13.7;;
23360;SDS011;11852;50.082;18.554;2023-12-20T05:40:18;21.7;;;14.2;;
23360;SDS011;11852;50.082;18.554;2023-12-20T05:41:23;23.2;;;13.7;;
23360;SDS011;11852;50.082;18.554;2023-12-20T05:42:28;22.1;;;14.4;;
23360;SDS011;11852;50.082;18.554;2023-12-20T05:43:33;21.5;;;14.4;;
23360;SDS011;11852;50.082;18.554;2023-12-20T05:44:39;20.4;;;13.0;;
23360;SDS011;11852;50.082;18.554;2023-12-20T05:45:45;23.8;;;15.5;;
23360;SDS011;11852;50.082;18.554;2023-12-20T05:46:50;21.3;;;13.7;;
23360;SDS011;11852;50.082;18.554;2023-12-20T05:47:55;21.2;;;14.0;;
23360;SDS011;11852;50.082;18.554;2023-12-20T05:49:00;20.0;;;13.5;;
23360;SDS011;11852;50.082;18.554;2023-12-20T05:50:06;21.9;;;13.4;;
23360;SDS011;11852;50.082;18.554;2023-12-20T05:51:11;22.4;;;13.9;;
23360;SDS011;11852;50.082;18.554;2023-12-20T05:52:16;23.0;;;14.5;;
23360;SDS011;11852;50.082;18.554;2023-12-20T05:53:21;21.9;;;15.1;;
23360;SDS011;11852;50.082;18.554;2023-12-20T05:54:26;22.3;;;14.9;;
23360;SDS011;11852;50.082;18.554;2023-12-20T05:55:30;26.5;;;17.6;;
23360;SDS011;11852;50.082;18.554;2023-12-20T05:56:35;27.1;;;17.7;;
23360;SDS011;11852;50.082;18.554;2023-12-20T05:57:40;26.7;;;16.7;;
23360;SDS011;11852;50.082;18.554;2023-12-20T05:58:45;24.7;;;16.0;;
23360;SDS011;11852;50.082;18.554;2023-12-20T05:59:50;24.8;;;16.6;;
23360;SDS011;11852;50.082;18.554;2023-12-20T06:00:55;26.0;;;16.6;;
23360;SDS011;11852;50.082;18.554;2023-12-20T06:02:00;24.4;;;14.9;;
23360;SDS011;11852;50.082;18.554;2023-12-20T06:03:05;25.1;;;15.0;;
23360;SDS011;11852;50.082;18.554;2023-12-20T06:04:10;23.6;;;15.0;;
23360;SDS011;11852;50.082;18.554;2023-12-20T06:05:15;23.3;;;14.1;;
23360;SDS011;11852;50.082;18.554;2023-12-20T06:06:20;23.4;;;14.0;;
23360;SDS011;11852;50.082;18.554;2023-12-20T06:07:25;21.4;;;13.2;;
23360;SDS011;11852;50.082;18.554;2023-12-20T06:08:30;21.6;;;13.2;;
23360;SDS011;11852;50.082;18.554;2023-12-20T06:09:35;18.1;;;12.2;;
23360;SDS011;11852;50.082;18.554;2023-12-20T06:10:40;15.8;;;10.6;;
23360;SDS011;11852;50.082;18.554;2023-12-20T06:11:45;18.5;;;12.0;;
23360;SDS011;11852;50.082;18.554;2023-12-20T06:12:50;17.2;;;11.1;;
23360;SDS011;11852;50.082;18.554;2023-12-20T06:13:56;14.7;;;10.8;;
23360;SDS011;11852;50.082;18.554;2023-12-20T06:15:02;15.0;;;10.1;;
23360;SDS011;11852;50.082;18.554;2023-12-20T06:16:06;15.5;;;9.7;;
23360;SDS011;11852;50.082;18.554;2023-12-20T06:17:11;15.7;;;9.6;;
23360;SDS011;11852;50.082;18.554;2023-12-20T06:18:16;18.2;;;11.0;;
23360;SDS011;11852;50.082;18.554;2023-12-20T06:19:21;14.8;;;10.3;;
23360;SDS011;11852;50.082;18.554;2023-12-20T06:20:26;16.3;;;11.4;;
23360;SDS011;11852;50.082;18.554;2023-12-20T06:21:30;17.9;;;10.8;;
23360;SDS011;11852;50.082;18.554;2023-12-20T06:22:35;16.9;;;11.3;;
23360;SDS011;11852;50.082;18.554;2023-12-20T06:23:40;17.1;;;10.9;;
23360;SDS011;11852;50.082;18.554;2023-12-20T06:24:45;16.2;;;11.0;;
23360;SDS011;11852;50.082;18.554;2023-12-20T06:25:50;18.2;;;11.4;;
23360;SDS011;11852;50.082;18.554;2023-12-20T06:26:54;16.6;;;10.1;;
23360;SDS011;11852;50.082;18.554;2023-12-20T06:27:59;16.5;;;11.1;;
23360;SDS011;11852;50.082;18.554;2023-12-20T06:29:04;15.5;;;10.6;;
23360;SDS011;11852;50.082;18.554;2023-12-20T06:30:09;16.3;;;10.3;;
23360;SDS011;11852;50.082;18.554;2023-12-20T06:31:15;16.1;;;9.8;;
23360;SDS011;11852;50.082;18.554;2023-12-20T06:32:20;16.4;;;10.3;;
23360;SDS011;11852;50.082;18.554;2023-12-20T06:33:25;17.2;;;10.5;;
23360;SDS011;11852;50.082;18.554;2023-12-20T06:34:30;17.3;;;10.6;;
23360;SDS011;11852;50.082;18.554;2023-12-20T06:35:35;14.7;;;9.8;;